Overview Statistics Trail Chart Weather Telemetry Raw packets
 

This is the latest recevied weather packets stored in our database for station/object KO4YAW. If no packets are shown the sender has not sent any weather packets the latest 10 day(s).

<< 34 35 36 37 38 39 >>
Time Temp. Humidity Pressure Rain* Wind** Luminosity Snow
1787866485 32.22° C 23% 1022.5 hPa 0 mm - 162 W/m² -
1787865585 32.78° C 22% 1022.4 hPa 0 mm - 337 W/m² -
1787864683 33.33° C 21% 1022.4 hPa 0 mm - 873 W/m² -
1787863783 32.78° C 22% 1022.5 hPa 0 mm - 894 W/m² -
1787862883 32.78° C 22% 1022.8 hPa 0 mm - 932 W/m² -
1787861983 32.78° C 22% 1023 hPa 0 mm - 952 W/m² -
1787861083 32.78° C 23% 1023.1 hPa 0 mm - 964 W/m² -
1787860183 32.22° C 21% 1023.1 hPa 0 mm - 992 W/m² -
1787859283 31.67° C 25% 1023.4 hPa 0 mm - 673 W/m² -
1787858383 31.67° C 27% 1023.5 hPa 0 mm - 790 W/m² -
1787857483 31.67° C 28% 1023.6 hPa 0 mm - 343 W/m² -
1787856583 30.56° C 31% 1023.7 hPa 0 mm - 290 W/m² -
1787855683 30° C 31% 1023.8 hPa 0 mm - 279 W/m² -
1787854783 30.56° C 28% 1024 hPa 0 mm - 240 W/m² -
1787853883 29.44° C 32% 1024.1 hPa 0 mm - 789 W/m² -
1787852983 28.89° C 32% 1024.4 hPa 0 mm - 169 W/m² -
1787852083 28.89° C 31% 1024.5 hPa 0 mm - 115 W/m² -
1787851183 27.78° C 35% 1024.8 hPa 0 mm - 70 W/m² -
1787850283 27.22° C 38% 1024.9 hPa 0 mm - 241 W/m² -
1787849383 26.67° C 40% 1024.8 hPa 0 mm - 732 W/m² -
1787848483 26.11° C 41% 1024.8 hPa 0 mm - 694 W/m² -
1787847583 25.56° C 43% 1024.7 hPa 0 mm - 777 W/m² -
1787846683 25° C 44% 1024.8 hPa 0 mm - 122 W/m² -
1787845783 24.44° C 44% 1024.8 hPa 0 mm - 55 W/m² -
1787844883 23.33° C 47% 1024.7 hPa 0 mm - 182 W/m² -

* Rain since midnight (hover to see other rain measurements)
** Current wind speed in m/s (hover to see current wind gust speed)